Time;durP1;ratioP1;P1;durP2;ratioP2;P2;SDS_P1;SDS_P2;PMS_P1;PMS_P2;Temp;Humidity;BMP_temperature;BMP_pressure;BME280_temperature;BME280_humidity;BME280_pressure;Samples;Min_cycle;Max_cycle;Signal;HPM_P1;HPM_P2
2023/01/23 00:01:33;;;;;;;0.70;0.70;;;3.80;76.40;;;2.67;64.87;95998.84;5096628;28;20244;-34
2023/01/23 00:04:00;;;;;;;0.80;0.80;;;3.80;76.40;;;2.67;65.02;95999.69;5079099;28;20185;-33
2023/01/23 00:06:28;;;;;;;0.70;0.70;;;3.80;76.40;;;2.70;65.02;96003.81;5096659;28;20251;-37
2023/01/23 00:08:55;;;;;;;0.80;0.80;;;3.80;76.40;;;2.72;64.63;96000.16;5079244;28;20253;-35
2023/01/23 00:11:28;;;;;;;0.90;0.90;;;3.80;76.50;;;2.74;65.06;95991.44;5078681;28;20507;-35
2023/01/23 00:13:57;;;;;;;0.80;0.80;;;3.90;76.50;;;2.74;64.68;95991.44;5078643;28;20222;-37
2023/01/23 00:16:27;;;;;;;0.80;0.80;;;3.90;76.40;;;2.72;64.70;95984.63;5096253;28;20251;-37
2023/01/23 00:18:55;;;;;;;0.70;0.70;;;3.90;76.30;;;2.74;64.57;95994.03;5078903;28;20190;-38
2023/01/23 00:21:25;;;;;;;0.70;0.70;;;3.90;76.30;;;2.74;64.45;95984.50;5096400;28;20634;-36
2023/01/23 00:23:55;;;;;;;0.70;0.70;;;3.90;76.30;;;2.72;64.93;95987.19;5096551;28;20219;-35
2023/01/23 00:26:26;;;;;;;0.70;0.70;;;3.90;76.20;;;2.71;64.86;95982.97;5096399;28;20191;-36
2023/01/23 00:28:53;;;;;;;0.80;0.80;;;3.90;76.30;;;2.69;64.75;95979.66;5096406;28;20198;-35
2023/01/23 00:31:27;;;;;;;0.70;0.70;;;3.80;76.30;;;2.68;64.55;95979.78;5096213;28;20523;-37
2023/01/23 00:33:58;;;;;;;0.70;0.70;;;3.90;76.30;;;2.67;64.89;95978.13;5096241;28;20181;-36
2023/01/23 00:36:36;;;;;;;0.70;0.70;;;3.80;76.20;;;2.65;64.87;95977.41;5096194;28;20179;-36
2023/01/23 00:39:06;;;;;;;0.80;0.80;;;3.80;76.30;;;2.64;64.65;95980.97;5079144;28;20640;-38
2023/01/23 00:41:34;;;;;;;0.70;0.70;;;3.80;76.20;;;2.62;64.96;95975.06;5095947;28;20191;-36
2023/01/23 00:44:03;;;;;;;0.80;0.80;;;3.80;76.20;;;2.59;65.11;95981.31;5096178;28;20222;-37
2023/01/23 00:46:30;;;;;;;0.80;0.80;;;3.80;76.20;;;2.59;64.64;95976.13;5061587;28;20183;-38
2023/01/23 00:48:57;;;;;;;0.80;0.80;;;3.80;76.30;;;2.60;65.01;95977.78;5096060;28;20269;-38
2023/01/23 00:51:25;;;;;;;0.80;0.80;;;3.80;76.30;;;2.59;64.93;95973.53;5078002;28;20195;-37
2023/01/23 00:53:52;;;;;;;0.80;0.80;;;3.80;76.40;;;2.60;64.75;95982.13;5061909;28;20274;-35
2023/01/23 00:56:20;;;;;;;0.80;0.80;;;3.70;76.30;;;2.60;65.04;95984.69;5095523;28;20199;-34
2023/01/23 00:58:47;;;;;;;0.70;0.70;;;3.70;76.40;;;2.62;65.08;95990.59;5095743;28;20191;-36
2023/01/23 01:01:16;;;;;;;0.70;0.70;;;3.80;77.30;;;2.62;65.09;95990.59;5095646;28;20249;-39
2023/01/23 01:03:43;;;;;;;0.80;0.80;;;3.70;76.40;;;2.63;64.83;95976.72;5095875;28;20201;-35
2023/01/23 01:06:11;;;;;;;0.70;0.70;;;3.70;76.40;;;2.61;64.70;95976.81;5078004;28;20570;-36
2023/01/23 01:08:39;;;;;;;0.70;0.70;;;3.70;76.40;;;2.61;64.58;95983.75;5095355;28;20211;-39
2023/01/23 01:11:06;;;;;;;0.70;0.70;;;3.70;76.40;;;2.61;65.04;95979.41;5095572;28;20202;-38
2023/01/23 01:13:34;;;;;;;0.80;0.80;;;3.70;76.50;;;2.58;64.91;95987.41;5044574;28;20241;-34
2023/01/23 01:16:01;;;;;;;0.70;0.70;;;3.70;76.50;;;2.60;64.88;95987.28;5095610;28;20638;-37
2023/01/23 01:18:29;;;;;;;0.70;0.70;;;3.70;76.50;;;2.60;64.86;95989.88;5077651;28;20301;-35
2023/01/23 01:20:57;;;;;;;0.70;0.70;;;3.70;76.60;;;2.63;65.05;95994.84;5078218;28;20244;-35
2023/01/23 01:23:25;;;;;;;0.70;0.70;;;3.70;76.50;;;2.62;64.78;95994.00;5095539;28;20231;-37
2023/01/23 01:25:52;;;;;;;0.70;0.70;;;3.70;76.50;;;2.63;65.25;95990.47;5095225;28;20638;-37
2023/01/23 01:28:20;;;;;;;0.70;0.70;;;3.70;76.60;;;2.64;64.68;95991.31;5077189;28;20283;-35
2023/01/23 01:30:47;;;;;;;0.77;0.77;;;3.70;76.50;;;2.63;64.90;95994.84;5077992;28;20289;-37
2023/01/23 01:33:15;;;;;;;0.80;0.80;;;3.70;76.60;;;2.62;64.96;95994.00;5095151;28;20189;-38
2023/01/23 01:35:43;;;;;;;0.70;0.70;;;3.70;76.50;;;2.62;65.00;95991.41;5077312;28;20214;-35
2023/01/23 01:38:10;;;;;;;0.70;0.70;;;3.70;76.50;;;2.63;64.82;95984.47;5077207;28;20194;-39
2023/01/23 01:40:37;;;;;;;0.70;0.70;;;3.70;76.50;;;2.63;64.86;95987.06;5077569;28;20211;-35
2023/01/23 01:43:17;;;;;;;0.70;0.70;;;3.70;76.50;;;2.63;64.80;95982.72;5095073;28;20222;-36
2023/01/23 01:46:05;;;;;;;0.80;0.80;;;3.70;76.50;;;2.61;64.91;95969.03;5077791;28;20186;-37
2023/01/23 01:49:02;;;;;;;0.70;0.70;;;3.70;76.60;;;2.60;65.04;95966.56;5077125;28;20297;-38
2023/01/23 01:51:36;;;;;;;0.70;0.70;;;3.70;76.60;;;2.56;65.17;95966.81;5060889;28;20187;-33
2023/01/23 01:54:39;;;;;;;0.70;0.70;;;3.70;76.70;;;2.54;65.07;95960.91;5077733;28;20214;-32
2023/01/23 01:57:22;;;;;;;0.73;0.73;;;3.60;76.70;;;2.52;65.03;95980.09;5082178;28;20638;-38
2023/01/23 02:00:05;;;;;;;0.70;0.70;;;3.60;76.70;;;2.52;65.19;95993.88;5060537;28;20202;-35
2023/01/23 02:02:51;;;;;;;0.70;0.70;;;3.60;76.70;;;2.54;65.24;95986.00;5078428;28;20282;-38
2023/01/23 02:05:25;;;;;;;0.70;0.70;;;3.60;76.80;;;2.52;65.30;95985.28;5060608;28;20215;-37
2023/01/23 02:08:14;;;;;;;0.80;0.80;;;3.60;76.70;;;2.53;65.47;95985.16;5077575;28;20702;-37
2023/01/23 02:10:44;;;;;;;0.80;0.80;;;3.60;76.70;;;2.52;65.17;95983.50;5044752;28;20295;-33
2023/01/23 02:13:31;;;;;;;0.80;0.80;;;3.60;76.70;;;2.53;65.08;95986.94;5079433;28;20281;-37
2023/01/23 02:16:22;;;;;;;0.70;0.70;;;3.60;76.70;;;2.51;65.01;95989.63;5099072;28;20183;-35
2023/01/23 02:18:52;;;;;;;0.70;0.70;;;3.60;76.70;;;2.53;65.34;95989.53;5067538;28;20660;-37
2023/01/23 02:21:23;;;;;;;0.80;0.80;;;3.60;76.70;;;2.53;65.20;95987.75;5064463;28;20221;-33
2023/01/23 02:24:29;;;;;;;0.70;0.70;;;3.60;76.80;;;2.52;65.34;95991.28;5064542;28;20715;-38
2023/01/23 02:26:57;;;;;;;0.90;0.90;;;3.60;76.80;;;2.52;65.21;95990.47;5081110;28;20224;-38
2023/01/23 02:29:25;;;;;;;0.80;0.80;;;3.60;76.80;;;2.51;65.51;95988.81;5080664;28;20195;-38
2023/01/23 02:31:55;;;;;;;0.70;0.70;;;3.60;76.80;;;2.50;65.32;95985.41;5080888;28;20205;-37
2023/01/23 02:34:24;;;;;;;0.70;0.70;;;3.60;76.80;;;2.53;65.16;95979.97;5080852;28;20199;-37
2023/01/23 02:36:57;;;;;;;0.70;0.70;;;3.60;76.80;;;2.54;65.20;95983.41;5080608;28;20195;-36
2023/01/23 02:39:24;;;;;;;0.70;0.70;;;3.60;76.80;;;2.53;65.51;95985.16;5080538;28;20206;-38
2023/01/23 02:41:54;;;;;;;0.77;0.77;;;3.60;76.80;;;2.56;65.40;95984.09;5080562;28;20252;-34
2023/01/23 02:44:31;;;;;;;0.80;0.80;;;3.60;76.80;;;2.57;65.25;95993.53;5080368;28;20202;-38
2023/01/23 02:47:10;;;;;;;0.70;0.70;;;3.60;76.80;;;2.60;65.15;96000.25;5064130;28;20217;-36
2023/01/23 02:49:39;;;;;;;0.70;0.70;;;3.70;76.80;;;2.60;65.16;95987.28;5080591;28;20619;-37
2023/01/23 02:52:08;;;;;;;0.80;0.80;;;3.70;76.80;;;2.61;65.44;95987.16;5080218;28;20191;-36
2023/01/23 02:54:36;;;;;;;0.70;0.70;;;3.70;76.80;;;2.63;65.05;95981.91;5080246;28;20559;-37
2023/01/23 02:57:03;;;;;;;0.90;0.90;;;3.70;76.80;;;2.61;65.20;95987.16;5097869;28;20187;-35
2023/01/23 03:02:18;;;;;;;0.70;0.70;;;3.70;76.80;;;2.63;65.33;95984.47;5066150;28;20241;-36
2023/01/23 03:04:46;;;;;;;0.80;0.80;;;3.70;76.80;;;2.65;65.07;95990.34;5080057;28;20202;-38
2023/01/23 03:07:14;;;;;;;0.80;0.80;;;3.70;76.70;;;2.66;65.17;95979.06;5063226;28;20202;-37
2023/01/23 03:09:45;;;;;;;0.80;0.80;;;3.70;76.80;;;2.65;65.45;95980.00;5079972;28;20199;-35
2023/01/23 03:12:14;;;;;;;0.70;0.70;;;3.70;76.70;;;2.63;65.26;95987.06;5079915;28;20199;-36
2023/01/23 03:14:41;;;;;;;0.70;0.70;;;3.70;76.70;;;2.62;65.52;95981.06;5079900;28;20191;-38
2023/01/23 03:17:09;;;;;;;0.70;0.70;;;3.70;76.70;;;2.61;65.01;95976.00;5079698;28;20221;-38
2023/01/23 03:19:37;;;;;;;0.80;0.80;;;3.70;76.70;;;2.59;64.99;95975.28;5079636;28;20201;-38
2023/01/23 03:22:06;;;;;;;0.70;0.70;;;3.70;76.70;;;2.55;65.24;95975.53;5079732;28;20202;-35
2023/01/23 03:24:33;;;;;;;0.70;0.70;;;3.70;76.70;;;2.54;65.35;95962.69;5078548;28;20194;-37
2023/01/23 03:27:01;;;;;;;0.70;0.70;;;3.70;76.70;;;2.53;65.29;95964.44;5097332;28;20211;-38
2023/01/23 03:32:21;;;;;;;0.80;0.80;;;3.60;76.80;;;2.53;65.54;95961.03;5080070;28;20183;-38
2023/01/23 03:34:48;;;;;;;0.70;0.70;;;3.60;76.80;;;2.52;65.29;95961.97;5079436;28;20190;-36
2023/01/23 03:37:16;;;;;;;0.80;0.80;;;3.60;76.90;;;2.53;65.40;95967.03;5097170;28;20218;-35
2023/01/23 03:42:35;;;;;;;0.80;0.80;;;3.60;76.90;;;2.51;65.58;95963.72;5079664;28;20202;-37
2023/01/23 03:45:05;;;;;;;0.80;0.80;;;3.60;77.00;;;2.51;65.41;95960.31;5079464;28;20534;-38
2023/01/23 03:47:34;;;;;;;0.73;0.73;;;3.50;77.00;;;2.50;65.55;95963.84;5062755;28;20195;-34
2023/01/23 03:50:01;;;;;;;0.70;0.70;;;3.50;77.00;;;2.51;65.42;95962.91;5079786;28;20293;-38
2023/01/23 03:52:36;;;;;;;0.60;0.60;;;3.50;77.00;;;2.52;65.49;95970.56;5096987;28;20205;-37
2023/01/23 03:55:04;;;;;;;0.70;0.70;;;3.50;77.10;;;2.54;65.42;95970.47;5079112;28;20230;-37
2023/01/23 03:57:32;;;;;;;0.80;0.80;;;3.60;77.10;;;2.56;65.45;95972.00;5078888;28;20297;-37
2023/01/23 04:00:31;;;;;;;0.65;0.65;;;3.60;77.10;;;2.56;65.38;95974.59;5084709;28;20207;-38
2023/01/23 04:03:03;;;;;;;0.70;0.70;;;3.60;77.10;;;2.58;65.38;95977.06;5079055;28;20739;-38
2023/01/23 04:05:31;;;;;;;0.70;0.70;;;3.60;77.10;;;2.58;65.56;95966.69;5078857;28;20528;-36
2023/01/23 04:08:00;;;;;;;0.70;0.70;;;3.60;77.10;;;2.58;65.47;95964.09;5079042;28;20223;-37
2023/01/23 04:10:27;;;;;;;0.70;0.70;;;3.60;77.20;;;2.59;65.67;95970.94;5079008;28;20194;-38
2023/01/23 04:13:01;;;;;;;0.80;0.80;;;3.60;77.20;;;2.57;65.63;95965.03;5063543;28;20183;-38
2023/01/23 04:15:31;;;;;;;0.75;0.75;;;3.50;77.20;;;2.55;65.73;95959.16;5062244;28;20199;-35
2023/01/23 04:17:59;;;;;;;0.73;0.73;;;3.50;77.30;;;2.54;66.08;95958.34;5078716;28;20544;-38
2023/01/23 04:20:28;;;;;;;0.80;0.80;;;3.50;77.40;;;2.56;65.56;95958.22;5078572;28;20598;-33
2023/01/23 04:22:56;;;;;;;0.80;0.80;;;3.50;77.50;;;2.56;65.69;95960.78;5096353;28;20190;-36
2023/01/23 04:25:27;;;;;;;0.70;0.70;;;3.50;77.50;;;2.57;65.88;95967.63;5062220;28;20202;-38
2023/01/23 04:27:54;;;;;;;0.80;0.80;;;3.50;77.50;;;2.56;65.81;95961.63;5096042;28;20316;-38
2023/01/23 04:30:21;;;;;;;0.70;0.70;;;3.50;77.40;;;2.59;65.77;95964.91;5078599;28;20199;-37
2023/01/23 04:32:49;;;;;;;0.80;0.80;;;3.60;77.40;;;2.61;65.85;95969.03;5078326;28;20229;-38
2023/01/23 04:35:18;;;;;;;0.70;0.70;;;3.60;77.40;;;2.63;65.82;95971.53;5078036;28;20194;-37
2023/01/23 04:37:45;;;;;;;0.80;0.80;;;3.60;77.40;;;2.65;65.78;95973.06;5078065;28;20268;-38
2023/01/23 04:40:12;;;;;;;0.70;0.70;;;3.70;77.40;;;2.66;65.43;95981.66;5078223;28;20681;-37
2023/01/23 04:42:51;;;;;;;0.80;0.80;;;3.70;77.30;;;2.69;65.61;95981.44;5096477;28;20175;-38
2023/01/23 04:45:33;;;;;;;0.70;0.70;;;3.70;77.30;;;2.70;65.51;95977.91;5096182;28;20187;-35
2023/01/23 04:48:21;;;;;;;0.80;0.80;;;3.80;77.30;;;2.72;65.53;95987.19;5077769;28;20527;-38
2023/01/23 04:50:49;;;;;;;0.80;0.80;;;3.80;77.30;;;2.75;65.50;95980.97;5077999;28;20194;-35
2023/01/23 04:53:16;;;;;;;0.80;0.80;;;3.80;77.20;;;2.77;65.94;95989.44;5096070;28;20255;-36
2023/01/23 04:55:48;;;;;;;0.80;0.80;;;3.90;77.30;;;2.80;65.54;95991.78;5077883;28;20199;-34
2023/01/23 04:58:18;;;;;;;0.70;0.70;;;3.90;77.20;;;2.80;65.45;95991.78;5077750;28;20191;-34
2023/01/23 05:00:45;;;;;;;0.70;0.70;;;3.80;77.10;;;2.81;65.56;95990.03;5077728;28;20260;-38
2023/01/23 05:03:15;;;;;;;0.80;0.80;;;3.90;77.20;;;2.81;65.57;95993.44;5077928;28;20267;-36
2023/01/23 05:05:46;;;;;;;0.70;0.70;;;3.90;77.20;;;2.81;65.53;95988.25;5077722;28;20664;-37
2023/01/23 05:08:14;;;;;;;0.80;0.80;;;3.90;77.20;;;2.84;65.46;95990.59;5060872;28;20661;-37
2023/01/23 05:10:49;;;;;;;0.70;0.70;;;3.90;77.10;;;2.84;65.65;95982.00;5077679;28;20194;-39
2023/01/23 05:13:18;;;;;;;0.80;0.80;;;3.90;77.10;;;2.84;65.69;95984.59;5077593;28;20520;-37
2023/01/23 05:15:46;;;;;;;0.90;0.90;;;3.90;77.10;;;2.84;65.73;95993.19;5077776;28;20190;-37
2023/01/23 05:18:13;;;;;;;0.70;0.70;;;3.90;77.10;;;2.84;65.32;95998.38;5078045;28;20217;-34
2023/01/23 05:20:40;;;;;;;0.70;0.70;;;3.90;77.10;;;2.84;65.40;95998.38;5078055;28;20685;-38
2023/01/23 05:23:08;;;;;;;0.70;0.70;;;3.90;77.00;;;2.84;65.35;96005.34;5095332;28;20209;-37
2023/01/23 05:25:44;;;;;;;0.70;0.70;;;3.90;77.00;;;2.82;65.62;96010.66;5095768;28;20171;-35
2023/01/23 05:28:12;;;;;;;0.70;0.70;;;3.90;77.00;;;2.85;65.44;96017.34;5077438;28;20214;-37
2023/01/23 05:30:46;;;;;;;0.70;0.70;;;3.90;77.00;;;2.89;65.70;96034.31;5077476;28;20191;-38
2023/01/23 05:33:22;;;;;;;0.70;0.70;;;4.00;77.00;;;2.91;65.35;96031.63;5095179;28;20644;-37
2023/01/23 05:35:49;;;;;;;0.80;0.80;;;4.00;77.10;;;2.94;65.47;96034.81;5095374;28;20190;-38
2023/01/23 05:38:16;;;;;;;0.80;0.80;;;4.00;77.10;;;2.97;65.52;96031.16;5077138;28;20202;-36
2023/01/23 05:40:43;;;;;;;0.70;0.70;;;4.00;77.10;;;3.01;65.62;96017.00;5095161;28;20592;-35
2023/01/23 05:43:15;;;;;;;0.70;0.70;;;4.10;77.20;;;3.01;65.36;96020.41;5095337;28;20186;-37
2023/01/23 05:46:20;;;;;;;0.80;0.80;;;4.10;77.10;;;2.99;65.50;96030.09;5053021;28;20242;-36
2023/01/23 05:48:51;;;;;;;0.80;0.80;;;4.10;77.00;;;3.02;65.15;96035.03;5052781;28;20212;-38
2023/01/23 05:51:22;;;;;;;0.80;0.80;;;4.20;77.10;;;3.03;65.50;96031.50;5034748;28;20213;-37
2023/01/23 05:53:51;;;;;;;0.70;0.70;;;4.10;77.00;;;3.04;65.54;96030.56;5077470;28;20186;-38
2023/01/23 05:56:19;;;;;;;0.80;0.80;;;4.20;77.10;;;3.05;65.36;96015.81;5077095;28;20202;-39
2023/01/23 05:59:15;;;;;;;0.75;0.75;;;4.20;77.00;;;3.02;65.45;96031.63;5068682;28;20199;-36
2023/01/23 06:01:59;;;;;;;0.70;0.70;;;4.20;77.00;;;3.03;65.34;96031.50;5077195;28;20238;-37
2023/01/23 06:04:48;;;;;;;0.70;0.70;;;4.20;77.00;;;3.03;65.77;96034.09;5095149;28;20201;-38
2023/01/23 06:07:25;;;;;;;0.80;0.80;;;4.20;77.00;;;3.03;65.51;96031.50;5077093;28;20205;-38
2023/01/23 06:09:55;;;;;;;0.80;0.80;;;4.20;77.00;;;3.02;65.50;96026.44;5076777;28;20606;-38
2023/01/23 06:12:23;;;;;;;0.70;0.70;;;4.20;77.00;;;3.02;65.67;96036.81;5076992;28;20648;-36
2023/01/23 06:14:50;;;;;;;0.70;0.70;;;4.20;77.00;;;3.03;65.58;96046.25;5094995;28;20190;-36
2023/01/23 06:17:17;;;;;;;0.80;0.80;;;4.20;77.00;;;3.05;65.65;96049.50;5094743;28;20716;-37
2023/01/23 06:19:44;;;;;;;0.70;0.70;;;4.20;77.00;;;3.08;65.73;96053.66;5076748;28;20203;-38
2023/01/23 06:22:12;;;;;;;0.70;0.70;;;4.20;77.00;;;3.08;65.29;96061.44;5077203;28;20301;-39
2023/01/23 06:25:14;;;;;;;0.80;0.80;;;4.20;77.10;;;3.09;65.32;96042.34;5072926;28;20195;-36
2023/01/23 06:27:41;;;;;;;0.70;0.70;;;4.20;77.00;;;3.06;65.68;96045.97;5090489;28;20744;-38
2023/01/23 06:30:09;;;;;;;0.80;0.80;;;4.20;77.00;;;3.09;65.33;96045.75;5076826;28;20594;-37
2023/01/23 06:32:41;;;;;;;0.80;0.80;;;4.30;77.00;;;3.09;65.34;96052.69;5076932;28;20207;-37
2023/01/23 06:35:10;;;;;;;0.80;0.80;;;4.30;77.00;;;3.11;65.65;96063.78;5076847;28;20195;-37
2023/01/23 06:37:41;;;;;;;0.80;0.80;;;4.30;77.10;;;3.11;65.80;96069.78;5077470;28;20502;-36
2023/01/23 06:40:13;;;;;;;0.70;0.70;;;4.30;77.10;;;3.13;65.70;96073.09;5028914;28;20206;-36
2023/01/23 06:42:49;;;;;;;0.70;0.70;;;4.30;77.00;;;3.12;65.40;96066.25;5076868;28;20263;-36
2023/01/23 06:45:18;;;;;;;0.80;0.80;;;4.30;77.90;;;3.12;65.35;96068.84;5076757;28;20211;-35
2023/01/23 06:47:46;;;;;;;0.70;0.70;;;4.30;77.10;;;3.12;65.40;96081.81;5076714;28;20248;-36
2023/01/23 06:50:13;;;;;;;0.65;0.65;;;4.30;77.10;;;3.14;65.44;96084.31;5060011;28;20226;-37
2023/01/23 06:52:40;;;;;;;0.80;0.80;;;4.30;77.10;;;3.14;65.42;96076.53;5076706;28;20199;-36
2023/01/23 06:55:08;;;;;;;0.80;0.80;;;4.30;77.10;;;3.11;65.52;96076.75;5094680;28;20274;-36
2023/01/23 06:57:36;;;;;;;0.70;0.70;;;4.20;76.90;;;3.09;65.49;96084.66;5077228;28;20199;-39
2023/01/23 07:00:08;;;;;;;0.70;0.70;;;4.20;76.90;;;3.07;65.27;96083.94;5064311;28;20235;-37
2023/01/23 07:02:38;;;;;;;0.70;0.70;;;4.20;76.80;;;3.06;65.27;96073.69;5080250;28;20242;-37
2023/01/23 07:05:06;;;;;;;0.80;0.80;;;4.20;77.00;;;3.05;65.55;96078.03;5080095;28;20198;-37
2023/01/23 07:07:36;;;;;;;0.80;0.80;;;4.20;76.90;;;3.05;65.39;96072.84;5097894;28;20187;-38
2023/01/23 07:10:03;;;;;;;0.70;0.70;;;4.20;77.00;;;3.05;65.47;96067.66;5080024;28;20317;-38
2023/01/23 07:12:31;;;;;;;0.70;0.70;;;4.10;77.00;;;3.03;65.54;96066.97;5063446;28;20222;-36
2023/01/23 07:14:59;;;;;;;0.82;0.82;;;4.10;76.90;;;3.05;65.43;96083.22;5080475;28;20281;-34
2023/01/23 07:17:33;;;;;;;0.80;0.80;;;4.10;77.00;;;3.07;65.50;96080.53;5080302;28;20205;-36
2023/01/23 07:20:00;;;;;;;0.80;0.80;;;4.10;77.10;;;3.10;65.35;96083.72;5079876;28;20263;-37
2023/01/23 07:22:28;;;;;;;0.70;0.70;;;4.10;77.20;;;3.14;65.81;96086.91;5079592;28;20586;-39
2023/01/23 07:24:55;;;;;;;0.70;0.70;;;4.10;77.30;;;3.17;65.63;96077.13;5097740;28;20194;-33
2023/01/23 07:27:22;;;;;;;0.70;0.70;;;4.20;77.40;;;3.22;65.58;96087.13;5097605;28;20202;-38
2023/01/23 07:29:49;;;;;;;0.70;0.70;;;4.20;77.40;;;3.29;65.51;96087.50;5079840;28;20214;-37
2023/01/23 07:32:16;;;;;;;0.70;0.70;;;4.20;77.40;;;3.33;65.67;96078.53;5097501;28;20260;-37
2023/01/23 07:34:43;;;;;;;0.80;0.80;;;4.30;77.40;;;3.37;65.58;96079.94;5079785;28;20239;-36
2023/01/23 07:37:10;;;;;;;0.80;0.80;;;4.30;77.40;;;3.41;65.77;96085.72;5097238;28;20645;-38
2023/01/23 07:39:38;;;;;;;0.70;0.70;;;4.40;77.40;;;3.44;65.67;96090.66;5097260;28;20195;-38
2023/01/23 07:42:05;;;;;;;0.70;0.70;;;4.40;77.40;;;3.40;65.31;96087.47;5079664;28;20194;-36
2023/01/23 07:44:32;;;;;;;0.70;0.70;;;4.40;77.20;;;3.38;65.29;96086.75;5097241;28;20634;-33
2023/01/23 07:46:59;;;;;;;0.75;0.75;;;4.50;77.20;;;3.38;65.33;96097.13;5097387;28;20202;-35
2023/01/23 07:49:26;;;;;;;0.70;0.70;;;4.50;77.10;;;3.37;65.41;96095.50;5062671;28;20218;-35
2023/01/23 07:51:53;;;;;;;0.70;0.70;;;4.50;77.00;;;3.39;65.12;96103.16;5097030;28;20194;-38
2023/01/23 07:54:20;;;;;;;0.70;0.70;;;4.50;77.00;;;3.42;64.99;96105.50;5096965;28;20191;-36
2023/01/23 07:56:50;;;;;;;0.70;0.70;;;4.50;77.00;;;3.44;65.17;96098.44;5079336;28;20190;-34
2023/01/23 07:59:17;;;;;;;0.70;0.70;;;4.50;76.80;;;3.44;65.04;96088.91;5078822;28;20611;-37
2023/01/23 08:01:44;;;;;;;0.80;0.80;;;4.40;76.80;;;3.46;64.88;96089.59;5079260;28;20238;-36
2023/01/23 08:04:11;;;;;;;0.70;0.70;;;4.40;76.90;;;3.46;64.98;96092.19;5079720;28;20514;-36
2023/01/23 08:06:39;;;;;;;0.70;0.70;;;4.40;76.80;;;3.46;64.89;96081.00;5096790;28;20190;-36
2023/01/23 08:09:06;;;;;;;0.70;0.70;;;4.40;76.70;;;3.45;64.88;96080.16;5096700;28;20532;-35
2023/01/23 08:11:33;;;;;;;0.90;0.90;;;4.30;76.80;;;3.46;65.14;96079.22;5096007;28;20191;-36
2023/01/23 08:14:00;;;;;;;0.70;0.70;;;4.30;77.00;;;3.48;64.58;96089.50;5096570;28;20191;-35
2023/01/23 08:16:28;;;;;;;0.70;0.70;;;4.30;76.90;;;3.51;64.90;96102.22;5079125;28;20213;-39
2023/01/23 08:18:55;;;;;;;0.70;0.70;;;4.30;77.00;;;3.54;65.18;96117.56;5096834;28;20214;-37
2023/01/23 08:21:22;;;;;;;0.80;0.80;;;4.40;77.20;;;3.61;64.87;96117.91;5096585;28;20526;-36
2023/01/23 08:23:49;;;;;;;0.70;0.70;;;4.40;77.20;;;3.67;65.03;96127.78;5096629;28;20199;-36
2023/01/23 08:26:17;;;;;;;0.70;0.70;;;4.50;77.30;;;3.71;65.04;96134.41;5096306;28;20524;-36
2023/01/23 08:28:45;;;;;;;0.70;0.70;;;4.60;77.30;;;3.77;64.94;96133.09;5078343;28;20267;-33
2023/01/23 08:31:13;;;;;;;0.80;0.80;;;4.60;77.20;;;3.81;65.01;96134.53;5096103;28;20629;-36
2023/01/23 08:33:40;;;;;;;0.70;0.70;;;4.70;77.20;;;3.87;64.87;96130.59;5078648;28;20496;-35
2023/01/23 08:36:10;;;;;;;0.80;0.80;;;4.70;77.10;;;3.92;64.92;96125.88;5096152;28;20617;-36
2023/01/23 08:38:39;;;;;;;0.70;0.70;;;4.70;77.90;;;3.95;64.96;96123.06;5096045;28;20216;-35
2023/01/23 08:41:08;;;;;;;0.80;0.80;;;4.80;77.20;;;4.00;64.72;96144.28;5078390;28;20195;-37
2023/01/23 08:43:36;;;;;;;0.80;0.80;;;4.90;77.20;;;4.04;65.04;96148.31;5096042;28;20190;-38
2023/01/23 08:46:03;;;;;;;0.80;0.80;;;4.90;77.20;;;4.07;64.98;96145.44;5095988;28;20194;-36
2023/01/23 08:48:32;;;;;;;0.70;0.70;;;4.90;77.10;;;4.09;64.74;96145.31;5078533;28;20226;-36
2023/01/23 08:51:03;;;;;;;0.80;0.80;;;5.00;77.10;;;4.10;64.58;96155.59;5095615;28;20210;-35
2023/01/23 08:53:31;;;;;;;0.70;0.70;;;5.00;77.00;;;4.11;64.47;96146.03;5095828;28;20252;-38
2023/01/23 08:56:10;;;;;;;0.60;0.60;;;5.00;76.70;;;4.10;64.49;96152.16;5095820;28;20192;-35
2023/01/23 08:58:37;;;;;;;0.80;0.80;;;5.00;76.40;;;4.08;64.17;96143.69;5078105;28;20190;-37
2023/01/23 09:01:04;;;;;;;0.70;0.70;;;5.10;76.50;;;4.05;64.24;96136.94;5077719;28;20206;-35
2023/01/23 09:03:31;;;;;;;0.70;0.70;;;5.10;76.20;;;4.05;64.13;96147.34;5095739;28;20314;-36
2023/01/23 09:06:01;;;;;;;0.80;0.80;;;5.00;75.90;;;4.03;63.67;96148.41;5095686;28;20190;-37
2023/01/23 09:08:28;;;;;;;0.70;0.70;;;5.00;75.70;;;4.01;63.79;96144.16;5061447;28;20195;-34
2023/01/23 09:11:00;;;;;;;0.75;0.75;;;4.90;75.70;;;3.98;63.23;96151.38;5095287;28;20222;-35
2023/01/23 09:13:28;;;;;;;0.70;0.70;;;4.90;75.60;;;3.95;63.50;96160.22;5095759;28;20179;-35
2023/01/23 09:15:55;;;;;;;0.80;0.80;;;4.80;75.60;;;3.94;63.30;96166.38;5095454;28;20197;-37
2023/01/23 09:18:23;;;;;;;0.70;0.70;;;4.80;75.80;;;3.92;63.40;96170.00;5077943;28;20191;-38
2023/01/23 09:20:52;;;;;;;0.80;0.80;;;4.90;76.00;;;3.92;63.51;96178.63;5061334;28;20205;-35
2023/01/23 09:23:20;;;;;;;0.80;0.80;;;4.80;75.70;;;3.90;63.17;96183.09;5094555;28;20638;-38
2023/01/23 09:25:47;;;;;;;0.80;0.80;;;4.80;75.60;;;3.87;63.49;96183.38;5077985;28;20561;-36
2023/01/23 09:28:14;;;;;;;0.80;0.80;;;4.80;75.80;;;3.89;63.25;96185.84;5095256;28;20194;-38
2023/01/23 09:30:41;;;;;;;0.70;0.70;;;4.80;75.70;;;3.87;63.34;96175.56;5095056;28;20211;-35
2023/01/23 09:33:08;;;;;;;0.70;0.70;;;4.80;75.80;;;3.87;63.57;96167.78;5095558;28;20187;-34
2023/01/23 09:35:35;;;;;;;0.60;0.60;;;4.80;76.00;;;3.91;63.38;96179.56;5095508;28;20191;-38
2023/01/23 09:38:05;;;;;;;0.70;0.70;;;4.80;76.00;;;3.92;63.23;96176.03;5095110;28;20225;-38
2023/01/23 09:40:52;;;;;;;0.70;0.70;;;4.80;75.90;;;3.92;63.31;96176.03;5077155;28;20195;-37
2023/01/23 09:43:43;;;;;;;0.80;0.80;;;4.80;75.90;;;3.96;63.42;96164.47;5095112;28;20183;-34
2023/01/23 09:46:13;;;;;;;0.80;0.80;;;4.80;75.80;;;3.98;63.37;96167.78;5077855;28;20198;-37
2023/01/23 09:48:47;;;;;;;0.80;0.80;;;4.80;75.80;;;3.99;63.31;96168.59;5077572;28;20191;-37
2023/01/23 09:51:33;;;;;;;0.70;0.70;;;4.80;75.70;;;3.99;63.00;96160.78;5095090;28;20641;-37
2023/01/23 09:54:39;;;;;;;0.70;0.70;;;4.80;75.40;;;3.94;62.84;96166.38;5061328;28;20524;-38
2023/01/23 09:57:12;;;;;;;0.80;0.80;;;4.70;75.20;;;3.93;63.12;96174.25;5092032;28;20202;-36
2023/01/23 09:59:45;;;;;;;0.70;0.70;;;4.80;75.60;;;3.95;63.21;96167.19;5095007;28;20179;-37
2023/01/23 10:02:26;;;;;;;0.70;0.70;;;4.80;75.80;;;3.97;63.22;96153.13;5059271;28;20250;-34
2023/01/23 10:04:57;;;;;;;0.70;0.70;;;4.80;75.90;;;4.01;63.16;96159.72;5074738;28;20191;-37
2023/01/23 10:07:41;;;;;;;0.80;0.80;;;4.80;75.80;;;4.03;63.14;96151.84;5073846;28;20663;-33
2023/01/23 10:10:39;;;;;;;0.70;0.70;;;4.80;75.80;;;4.01;63.21;96146.75;5074516;28;20203;-35
2023/01/23 10:13:31;;;;;;;0.73;0.73;;;4.90;75.80;;;3.99;63.01;96147.81;5074017;28;20245;-36
2023/01/23 10:16:37;;;;;;;0.70;0.70;;;4.90;75.70;;;3.97;63.02;96150.53;5074815;28;20203;-36
2023/01/23 10:19:38;;;;;;;0.70;0.70;;;4.90;75.60;;;3.95;63.12;96154.22;5074192;28;20176;-38
2023/01/23 10:22:34;;;;;;;0.70;0.70;;;4.90;75.60;;;3.94;63.23;96148.19;5074710;28;20499;-35
2023/01/23 10:25:20;;;;;;;0.70;0.70;;;4.90;75.80;;;3.97;63.46;96147.94;5073911;28;20196;-34
2023/01/23 10:27:50;;;;;;;0.80;0.80;;;4.90;75.70;;;3.99;63.43;96147.81;5073621;28;20607;-35
2023/01/23 10:30:32;;;;;;;0.80;0.80;;;4.90;75.90;;;4.01;63.42;96140.75;5074241;28;20215;-35
2023/01/23 10:33:16;;;;;;;0.70;0.70;;;4.90;76.50;;;4.05;63.40;96142.13;5073993;28;20650;-37
2023/01/23 10:36:08;;;;;;;0.80;0.80;;;4.90;75.80;;;4.01;63.14;96143.34;5078508;28;20180;-36
2023/01/23 10:39:10;;;;;;;0.70;0.70;;;5.00;75.50;;;3.99;63.33;96145.22;5077595;28;20595;-35
2023/01/23 10:41:38;;;;;;;0.60;0.60;;;4.90;76.30;;;4.00;62.96;96146.88;5078093;28;20188;-37
2023/01/23 10:44:17;;;;;;;0.80;0.80;;;4.90;75.50;;;4.00;63.48;96145.13;5078134;28;20203;-36
2023/01/23 10:46:51;;;;;;;0.70;0.70;;;4.90;75.70;;;3.99;63.30;96140.88;5078352;28;20201;-37
2023/01/23 10:49:29;;;;;;;0.80;0.80;;;5.00;75.80;;;4.03;63.27;96135.41;5061916;28;20183;-34
2023/01/23 10:51:56;;;;;;;0.80;0.80;;;4.90;75.60;;;4.04;63.38;96129.28;5077257;28;20516;-37
2023/01/23 10:54:26;;;;;;;0.80;0.80;;;5.00;75.80;;;4.06;63.46;96125.63;5077032;28;20320;-33
2023/01/23 10:57:08;;;;;;;0.80;0.80;;;5.00;75.90;;;4.09;63.42;96116.75;5077309;28;20180;-36
2023/01/23 11:00:03;;;;;;;0.80;0.80;;;5.00;75.90;;;4.10;63.50;96121.84;5077018;28;20256;-34
2023/01/23 11:02:35;;;;;;;0.70;0.70;;;5.00;75.80;;;4.11;63.48;96118.31;5060674;28;20242;-36